createdAt,value
2023-02-04T00:00:30.629Z,100432.84
2023-02-04T00:02:58.713Z,100433.94
2023-02-04T00:05:26.404Z,100433.06
2023-02-04T00:07:54.277Z,100430.38
2023-02-04T00:10:23.213Z,100424.31
2023-02-04T00:12:50.948Z,100424.38
2023-02-04T00:15:23.329Z,100420.78
2023-02-04T00:17:50.911Z,100426.91
2023-02-04T00:20:19.792Z,100422.69
2023-02-04T00:22:47.432Z,100426.31
2023-02-04T00:25:15.089Z,100425.44
2023-02-04T00:27:42.824Z,100419.41
2023-02-04T00:30:11.688Z,100417.63
2023-02-04T00:32:40.178Z,100418.66
2023-02-04T00:35:07.998Z,100417.75
2023-02-04T00:37:36.255Z,100424.59
2023-02-04T00:40:05.647Z,100419.34
2023-02-04T00:42:33.736Z,100424.56
2023-02-04T00:45:01.193Z,100419.34
2023-02-04T00:47:28.751Z,100402.13
2023-02-04T00:49:57.457Z,100417.56
2023-02-04T00:52:25.243Z,100408.75
2023-02-04T00:54:52.731Z,100406.03
2023-02-04T00:57:20.413Z,100408.63
2023-02-04T00:59:48.015Z,100410.13
2023-02-04T01:02:18.358Z,100399.09
2023-02-04T01:04:46.121Z,100402.41
2023-02-04T01:07:13.927Z,100404.31
2023-02-04T01:09:41.532Z,100401.00
2023-02-04T01:12:09.652Z,100397.47
2023-02-04T01:14:37.249Z,100403.47
2023-02-04T01:17:06.459Z,100389.50
2023-02-04T01:19:34.223Z,100400.66
2023-02-04T01:22:01.755Z,100400.84
2023-02-04T01:24:29.536Z,100397.44
2023-02-04T01:27:15.897Z,100395.91
2023-02-04T01:29:44.250Z,100405.47
2023-02-04T01:32:11.779Z,100399.69
2023-02-04T01:34:40.005Z,100394.59
2023-02-04T01:37:07.615Z,100401.53
2023-02-04T01:39:36.955Z,100397.28
2023-02-04T01:42:04.985Z,100409.44
2023-02-04T01:44:33.085Z,100405.25
2023-02-04T01:47:00.944Z,100403.41
2023-02-04T01:49:29.392Z,100402.41
2023-02-04T01:51:57.547Z,100407.56
2023-02-04T01:54:26.569Z,100413.59
2023-02-04T01:56:55.548Z,100414.38
2023-02-04T01:59:24.835Z,100412.66
2023-02-04T02:01:53.544Z,100409.22
2023-02-04T02:04:30.078Z,100412.66
2023-02-04T02:07:01.914Z,100417.97
2023-02-04T02:09:32.236Z,100405.97
2023-02-04T02:12:03.390Z,100407.69
2023-02-04T02:14:31.813Z,100406.69
2023-02-04T02:16:59.524Z,100405.91
2023-02-04T02:19:31.578Z,100410.38
2023-02-04T02:22:25.151Z,100416.38
2023-02-04T02:24:53.043Z,100407.75
2023-02-04T02:27:22.253Z,100411.09
2023-02-04T02:29:51.544Z,100412.81
2023-02-04T02:32:21.937Z,100413.69
2023-02-04T02:34:49.514Z,100422.38
2023-02-04T02:37:17.117Z,100412.06
2023-02-04T02:39:46.070Z,100419.81
2023-02-04T02:42:17.023Z,100418.81
2023-02-04T02:44:46.425Z,100422.06
2023-02-04T02:47:16.868Z,100422.88
2023-02-04T02:49:44.910Z,100422.88
2023-02-04T02:52:13.652Z,100424.47
2023-02-04T02:54:42.374Z,100419.22
2023-02-04T02:57:12.296Z,100426.19
2023-02-04T02:59:39.892Z,100430.50
2023-02-04T03:02:11.063Z,100427.91
2023-02-04T03:04:43.882Z,100425.38
2023-02-04T03:07:14.166Z,100430.38
2023-02-04T03:09:42.883Z,100430.50
2023-02-04T03:12:10.452Z,100424.44
2023-02-04T03:14:39.174Z,100420.88
2023-02-04T03:17:11.386Z,100426.19
2023-02-04T03:19:39.870Z,100415.19
2023-02-04T03:22:08.242Z,100412.59
2023-02-04T03:24:37.999Z,100413.56
2023-02-04T03:27:05.641Z,100423.84
2023-02-04T03:29:41.233Z,100425.56
2023-02-04T03:32:08.857Z,100424.81
2023-02-04T03:34:36.803Z,100421.34
2023-02-04T03:37:04.377Z,100424.22
2023-02-04T03:39:32.657Z,100421.69
2023-02-04T03:42:00.695Z,100436.66
2023-02-04T03:44:28.288Z,100436.69
2023-02-04T03:46:56.789Z,100429.81
2023-02-04T03:49:24.875Z,100427.44
2023-02-04T03:51:52.456Z,100431.16
2023-02-04T03:54:20.029Z,100432.88
2023-02-04T03:56:47.891Z,100431.88
2023-02-04T03:59:15.384Z,100447.63
2023-02-04T04:01:42.896Z,100433.75
2023-02-04T04:04:10.979Z,100437.13
2023-02-04T04:06:38.815Z,100439.84
2023-02-04T04:09:06.596Z,100445.88
2023-02-04T04:11:34.415Z,100443.19
2023-02-04T04:14:03.187Z,100438.06
2023-02-04T04:16:30.781Z,100437.31
2023-02-04T04:18:59.174Z,100445.09
2023-02-04T04:21:26.695Z,100438.22
2023-02-04T04:23:54.244Z,100448.69
2023-02-04T04:26:22.015Z,100440.03
2023-02-04T04:28:49.655Z,100433.97
2023-02-04T04:31:17.456Z,100435.00
2023-02-04T04:33:45.115Z,100424.63
2023-02-04T04:36:12.629Z,100435.84
2023-02-04T04:38:40.625Z,100434.16
2023-02-04T04:41:08.573Z,100433.44
2023-02-04T04:43:36.121Z,100436.94
2023-02-04T04:46:03.665Z,100438.63
2023-02-04T04:48:31.376Z,100440.34
2023-02-04T04:50:59.018Z,100435.97
2023-02-04T04:53:26.574Z,100453.31
2023-02-04T04:55:54.265Z,100457.63
2023-02-04T04:58:22.024Z,100454.16
2023-02-04T05:00:49.642Z,100455.94
2023-02-04T05:03:17.271Z,100450.75
2023-02-04T05:05:44.988Z,100463.72
2023-02-04T05:08:17.125Z,100458.53
2023-02-04T05:10:44.773Z,100471.59
2023-02-04T05:13:12.432Z,100473.31
2023-02-04T05:15:39.954Z,100480.16
2023-02-04T05:18:07.881Z,100490.56
2023-02-04T05:20:35.572Z,100490.38
2023-02-04T05:23:05.467Z,100505.97
2023-02-04T05:25:33.396Z,100493.94
2023-02-04T05:28:01.073Z,100502.63
2023-02-04T05:30:28.916Z,100518.22
2023-02-04T05:32:56.829Z,100515.53
2023-02-04T05:35:24.485Z,100518.16
2023-02-04T05:37:51.944Z,100519.06
2023-02-04T05:40:19.473Z,100509.63
2023-02-04T05:42:47.016Z,100513.94
2023-02-04T05:45:16.573Z,100519.97
2023-02-04T05:47:44.491Z,100517.41
2023-02-04T05:50:12.106Z,100517.38
2023-02-04T05:52:40.475Z,100520.72
2023-02-04T05:55:10.906Z,100532.00
2023-02-04T05:57:39.757Z,100525.97
2023-02-04T06:00:08.136Z,100525.13
2023-02-04T06:02:42.076Z,100515.53
2023-02-04T06:05:09.716Z,100520.78
2023-02-04T06:07:37.877Z,100522.50
2023-02-04T06:10:06.942Z,100528.53
2023-02-04T06:12:35.026Z,100535.38
2023-02-04T06:15:02.920Z,100537.88
2023-02-04T06:17:30.853Z,100540.41
2023-02-04T06:19:58.486Z,100536.09
2023-02-04T06:22:26.891Z,100539.66
2023-02-04T06:24:55.651Z,100545.72
2023-02-04T06:27:23.621Z,100544.00
2023-02-04T06:29:54.919Z,100545.59
2023-02-04T06:32:23.552Z,100544.78
2023-02-04T06:34:51.274Z,100550.94
2023-02-04T06:37:18.869Z,100552.69
2023-02-04T06:39:46.491Z,100556.19
2023-02-04T06:42:14.119Z,100554.47
2023-02-04T06:44:41.798Z,100558.72
2023-02-04T06:47:09.526Z,100574.34
2023-02-04T06:49:37.173Z,100563.97
2023-02-04T06:52:05.828Z,100561.41
2023-02-04T06:54:33.731Z,100563.06
2023-02-04T06:57:06.749Z,100568.25
2023-02-04T06:59:35.847Z,100566.63
2023-02-04T07:02:04.612Z,100574.41
2023-02-04T07:04:32.094Z,100585.66
2023-02-04T07:06:59.757Z,100580.50
2023-02-04T07:09:27.515Z,100573.56
2023-02-04T07:11:55.079Z,100585.72
2023-02-04T07:14:22.759Z,100581.44
2023-02-04T07:16:50.209Z,100570.19
2023-02-04T07:19:20.188Z,100583.06
2023-02-04T07:21:48.582Z,100593.34
2023-02-04T07:24:16.109Z,100578.59
2023-02-04T07:26:43.633Z,100593.38
2023-02-04T07:29:17.462Z,100589.88
2023-02-04T07:31:51.658Z,100594.25
2023-02-04T07:34:19.290Z,100591.63
2023-02-04T07:36:47.161Z,100583.75
2023-02-04T07:39:14.853Z,100580.34
2023-02-04T07:41:42.945Z,100592.41
2023-02-04T07:44:13.386Z,100581.13
2023-02-04T07:46:41.612Z,100588.94
2023-02-04T07:49:09.404Z,100597.59
2023-02-04T07:51:37.364Z,100594.06
2023-02-04T07:54:04.880Z,100602.81
2023-02-04T07:56:33.297Z,100597.53
2023-02-04T07:59:00.872Z,100591.44
2023-02-04T08:01:28.499Z,100590.41
2023-02-04T08:03:56.282Z,100597.38
2023-02-04T08:06:23.782Z,100600.72
2023-02-04T08:08:51.554Z,100610.19
2023-02-04T08:11:22.745Z,100609.28
2023-02-04T08:13:50.706Z,100613.72
2023-02-04T08:16:18.403Z,100619.97
2023-02-04T08:18:45.840Z,100609.50
2023-02-04T08:21:13.592Z,100620.91
2023-02-04T08:23:41.961Z,100620.97
2023-02-04T08:26:11.519Z,100631.38
2023-02-04T08:28:39.237Z,100635.06
2023-02-04T08:31:07.342Z,100643.81
2023-02-04T08:33:36.128Z,100633.53
2023-02-04T08:36:04.551Z,100630.06
2023-02-04T08:38:32.301Z,100647.34
2023-02-04T08:41:02.757Z,100643.94
2023-02-04T08:43:30.817Z,100640.63
2023-02-04T08:45:58.619Z,100648.34
2023-02-04T08:48:26.242Z,100650.06
2023-02-04T08:50:53.786Z,100629.22
2023-02-04T08:53:21.594Z,100632.66
2023-02-04T08:55:49.173Z,100637.84
2023-02-04T08:58:16.824Z,100643.91
2023-02-04T09:00:44.442Z,100636.06
2023-02-04T09:03:12.357Z,100634.97
2023-02-04T09:05:39.943Z,100626.28
2023-02-04T09:08:07.574Z,100622.84
2023-02-04T09:10:35.441Z,100630.44
2023-02-04T09:13:03.239Z,100626.19
2023-02-04T09:15:31.299Z,100634.88
2023-02-04T09:18:12.073Z,100626.31
2023-02-04T09:20:39.818Z,100622.19
2023-02-04T09:23:12.215Z,100627.41
2023-02-04T09:25:40.675Z,100633.41
2023-02-04T09:28:12.638Z,100633.47
2023-02-04T09:30:41.658Z,100637.56
2023-02-04T09:33:11.640Z,100638.41
2023-02-04T09:35:40.178Z,100637.69
2023-02-04T09:38:07.759Z,100634.22
2023-02-04T09:40:38.342Z,100636.84
2023-02-04T09:43:07.021Z,100626.31
2023-02-04T09:45:36.634Z,100633.31
2023-02-04T09:48:07.111Z,100630.78
2023-02-04T09:50:35.940Z,100630.81
2023-02-04T09:53:07.696Z,100633.25
2023-02-04T09:55:39.085Z,100633.34
2023-02-04T09:58:14.585Z,100632.44
2023-02-04T10:00:42.429Z,100631.50
2023-02-04T10:03:18.504Z,100630.50
2023-02-04T10:05:47.063Z,100625.31
2023-02-04T10:08:39.029Z,100625.06
2023-02-04T10:11:09.392Z,100624.13
2023-02-04T10:13:42.578Z,100620.69
2023-02-04T10:16:32.052Z,100617.16
2023-02-04T10:19:03.611Z,100619.69
2023-02-04T10:21:33.233Z,100624.00
2023-02-04T10:24:04.361Z,100624.97
2023-02-04T10:26:32.997Z,100631.88
2023-02-04T10:29:02.393Z,100636.41
2023-02-04T10:31:36.163Z,100632.88
2023-02-04T10:34:12.757Z,100629.47
2023-02-04T10:36:42.529Z,100622.44
2023-02-04T10:39:18.210Z,100627.44
2023-02-04T10:41:57.747Z,100630.06
2023-02-04T10:44:31.146Z,100635.28
2023-02-04T10:47:01.062Z,100629.38
2023-02-04T10:49:28.994Z,100635.44
2023-02-04T10:51:57.856Z,100634.63
2023-02-04T10:54:31.716Z,100645.78
2023-02-04T10:57:17.531Z,100645.88
2023-02-04T10:59:47.711Z,100639.72
2023-02-04T11:02:43.521Z,100637.13
2023-02-04T11:05:20.233Z,100650.09
2023-02-04T11:07:49.630Z,100643.13
2023-02-04T11:10:23.502Z,100636.94
2023-02-04T11:12:54.400Z,100633.41
2023-02-04T11:15:50.002Z,100635.28
2023-02-04T11:18:21.083Z,100632.44
2023-02-04T11:20:50.963Z,100635.13
2023-02-04T11:23:27.569Z,100632.56
2023-02-04T11:26:20.336Z,100622.03
2023-02-04T11:28:56.487Z,100624.53
2023-02-04T11:31:24.115Z,100615.78
2023-02-04T11:34:19.417Z,100614.03
2023-02-04T11:36:59.039Z,100613.94
2023-02-04T11:39:38.327Z,100615.75
2023-02-04T11:42:13.120Z,100621.03
2023-02-04T11:44:41.235Z,100625.22
2023-02-04T11:47:09.621Z,100619.16
2023-02-04T11:49:37.986Z,100627.69
2023-02-04T11:52:14.100Z,100631.94
2023-02-04T11:54:41.752Z,100624.31
2023-02-04T11:57:12.542Z,100635.53
2023-02-04T11:59:42.429Z,100638.94
2023-02-04T12:02:19.661Z,100638.13
2023-02-04T12:04:55.369Z,100639.75
2023-02-04T12:07:28.706Z,100642.41
2023-02-04T12:09:57.574Z,100649.31
2023-02-04T12:12:30.793Z,100643.34
2023-02-04T12:15:13.776Z,100652.88
2023-02-04T12:17:44.997Z,100648.56
2023-02-04T12:20:14.199Z,100659.75
2023-02-04T12:22:41.878Z,100664.91
2023-02-04T12:25:09.736Z,100668.44
2023-02-04T12:27:38.021Z,100661.72
2023-02-04T12:30:06.209Z,100665.22
2023-02-04T12:32:33.764Z,100670.41
2023-02-04T12:35:04.862Z,100675.56
2023-02-04T12:37:32.761Z,100676.63
2023-02-04T12:40:00.296Z,100685.19
2023-02-04T12:42:27.899Z,100692.06
2023-02-04T12:44:55.391Z,100684.22
2023-02-04T12:47:23.107Z,100693.97
2023-02-04T12:49:50.839Z,100700.91
2023-02-04T12:52:18.487Z,100707.84
2023-02-04T12:54:46.007Z,100701.97
2023-02-04T12:57:14.629Z,100702.94
2023-02-04T12:59:42.093Z,100705.53
2023-02-04T13:02:11.178Z,100709.69
2023-02-04T13:04:39.097Z,100704.47
2023-02-04T13:07:07.972Z,100708.81
2023-02-04T13:09:37.106Z,100710.59
2023-02-04T13:12:06.128Z,100708.03
2023-02-04T13:14:33.891Z,100702.16
2023-02-04T13:17:01.595Z,100713.31
2023-02-04T13:19:29.325Z,100707.25
2023-02-04T13:21:56.961Z,100703.81
2023-02-04T13:24:24.827Z,100712.50
2023-02-04T13:26:52.635Z,100708.88
2023-02-04T13:29:21.893Z,100711.31
2023-02-04T13:31:49.782Z,100713.03
2023-02-04T13:34:17.412Z,100719.06
2023-02-04T13:36:45.021Z,100727.00
2023-02-04T13:39:12.583Z,100722.66
2023-02-04T13:41:41.030Z,100727.88
2023-02-04T13:44:08.572Z,100725.19
2023-02-04T13:46:36.521Z,100726.06
2023-02-04T13:49:04.450Z,100731.31
2023-02-04T13:51:32.822Z,100733.84
2023-02-04T13:54:00.544Z,100730.41
2023-02-04T13:56:28.800Z,100737.25
2023-02-04T13:58:56.358Z,100735.50
2023-02-04T14:01:24.110Z,100725.00
2023-02-04T14:03:51.952Z,100734.59
2023-02-04T14:06:21.731Z,100736.38
2023-02-04T14:08:49.549Z,100739.81
2023-02-04T14:11:17.089Z,100736.34
2023-02-04T14:13:45.785Z,100729.63
2023-02-04T14:16:15.371Z,100735.59
2023-02-04T14:18:42.938Z,100740.75
2023-02-04T14:21:10.764Z,100735.59
2023-02-04T14:23:38.493Z,100734.75
2023-02-04T14:26:05.997Z,100726.97
2023-02-04T14:28:33.479Z,100734.75
2023-02-04T14:31:01.884Z,100731.38
2023-02-04T14:33:29.513Z,100741.91
2023-02-04T14:35:57.208Z,100751.53
2023-02-04T14:38:30.809Z,100743.75
2023-02-04T14:40:58.830Z,100742.94
2023-02-04T14:43:27.217Z,100749.78
2023-02-04T14:45:55.461Z,100746.38
2023-02-04T14:48:22.968Z,100749.88
2023-02-04T14:50:50.651Z,100756.78
2023-02-04T14:53:18.272Z,100761.97
2023-02-04T14:55:46.075Z,100773.19
2023-02-04T14:58:13.810Z,100768.09
2023-02-04T15:00:41.457Z,100781.97
2023-02-04T15:03:09.226Z,100788.84
2023-02-04T15:05:36.958Z,100792.28
2023-02-04T15:08:05.127Z,100797.50
2023-02-04T15:10:33.068Z,100804.38
2023-02-04T15:13:01.152Z,100804.31
2023-02-04T15:15:31.337Z,100809.56
2023-02-04T15:17:59.061Z,100806.94
2023-02-04T15:20:27.143Z,100811.22
2023-02-04T15:40:01.101Z,100823.41
2023-02-04T15:42:29.527Z,100834.63
2023-02-04T15:44:57.140Z,100836.38
2023-02-04T15:47:25.119Z,100825.09
2023-02-04T15:49:52.862Z,100831.13
2023-02-04T15:52:25.206Z,100824.09
2023-02-04T15:54:53.592Z,100829.34
2023-02-04T15:57:21.230Z,100836.34
2023-02-04T15:59:48.839Z,100837.34
2023-02-04T16:02:16.826Z,100834.69
2023-02-04T16:04:45.517Z,100844.22
2023-02-04T16:07:13.479Z,100850.22
2023-02-04T16:09:41.138Z,100845.16
2023-02-04T16:12:08.981Z,100839.09
2023-02-04T16:14:36.728Z,100838.22
2023-02-04T16:17:08.376Z,100840.13
2023-02-04T16:19:36.160Z,100842.78
2023-02-04T16:22:05.512Z,100841.94
2023-02-04T16:24:34.515Z,100845.44
2023-02-04T16:27:02.281Z,100842.78
2023-02-04T16:29:30.962Z,100848.88
2023-02-04T16:31:59.001Z,100852.28
2023-02-04T16:34:26.693Z,100852.28
2023-02-04T16:36:54.275Z,100862.78
2023-02-04T16:39:22.599Z,100855.00
2023-02-04T16:41:50.327Z,100856.75
2023-02-04T16:44:18.016Z,100860.25
2023-02-04T16:46:45.759Z,100857.72
2023-02-04T16:49:14.091Z,100855.91
2023-02-04T16:51:41.706Z,100858.63
2023-02-04T16:54:10.213Z,100864.66
2023-02-04T16:56:37.855Z,100865.50
2023-02-04T16:59:05.552Z,100867.25
2023-02-04T17:01:36.777Z,100862.97
2023-02-04T17:04:04.857Z,100875.03
2023-02-04T17:06:32.911Z,100874.22
2023-02-04T17:09:00.594Z,100875.03
2023-02-04T17:11:34.229Z,100866.38
2023-02-04T17:14:04.658Z,100879.38
2023-02-04T17:16:34.225Z,100871.63
2023-02-04T17:19:02.441Z,100869.97
2023-02-04T17:21:31.428Z,100872.56
2023-02-04T17:24:04.321Z,100868.22
2023-02-04T17:26:37.505Z,100876.81
2023-02-04T17:29:14.206Z,100878.50
2023-02-04T17:31:44.648Z,100881.94
2023-02-04T17:34:12.457Z,100886.25
2023-02-04T17:36:40.232Z,100886.25
2023-02-04T17:39:08.092Z,100888.00
2023-02-04T17:41:35.801Z,100884.50
2023-02-04T17:44:03.640Z,100881.97
2023-02-04T17:46:31.641Z,100888.91
2023-02-04T17:48:59.546Z,100880.25
2023-02-04T17:51:27.122Z,100884.56
2023-02-04T17:53:54.768Z,100894.94
2023-02-04T17:56:22.437Z,100893.19
2023-02-04T17:58:50.105Z,100891.50
2023-02-04T18:01:21.637Z,100895.06
2023-02-04T18:03:49.621Z,100891.59
2023-02-04T18:06:27.344Z,100897.69
2023-02-04T18:09:02.203Z,100897.66
2023-02-04T18:11:36.274Z,100902.00
2023-02-04T18:14:27.378Z,100894.22
2023-02-04T18:16:58.452Z,100901.13
2023-02-04T18:19:31.693Z,100885.56
2023-02-04T18:21:59.585Z,100890.75
2023-02-04T18:24:39.686Z,100894.16
2023-02-04T18:27:15.797Z,100897.69
2023-02-04T18:29:45.463Z,100904.56
2023-02-04T18:32:21.288Z,100905.31
2023-02-04T18:34:57.474Z,100901.88
2023-02-04T18:37:36.233Z,100905.47
2023-02-04T18:40:09.837Z,100898.50
2023-02-04T18:42:45.916Z,100902.84
2023-02-04T18:45:24.200Z,100915.03
2023-02-04T18:47:56.971Z,100914.19
2023-02-04T18:50:33.030Z,100913.34
2023-02-04T18:53:18.676Z,100910.69
2023-02-04T18:55:49.551Z,100908.13
2023-02-04T18:58:17.219Z,100916.81
2023-02-04T19:00:50.313Z,100922.94
2023-02-04T19:03:37.626Z,100920.34
2023-02-04T19:06:33.606Z,100922.06
2023-02-04T19:09:10.022Z,100923.84
2023-02-04T19:12:08.387Z,100918.66
2023-02-04T19:14:39.058Z,100924.69
2023-02-04T19:17:39.610Z,100909.94
2023-02-04T19:20:23.002Z,100925.47
2023-02-04T19:22:54.975Z,100917.69
2023-02-04T19:25:30.832Z,100921.94
2023-02-04T19:28:01.442Z,100921.91
2023-02-04T19:30:29.421Z,100921.06
2023-02-04T19:32:58.700Z,100922.78
2023-02-04T19:35:29.669Z,100921.91
2023-02-04T19:38:02.451Z,100926.31
2023-02-04T19:40:33.797Z,100929.00
2023-02-04T19:43:20.908Z,100926.34
2023-02-04T19:45:51.087Z,100928.94
2023-02-04T19:48:24.464Z,100923.78
2023-02-04T19:50:53.280Z,100929.00
2023-02-04T19:53:22.670Z,100946.34
2023-02-04T19:55:54.446Z,100936.78
2023-02-04T19:58:28.755Z,100930.75
2023-02-04T20:01:02.999Z,100934.19
2023-02-04T20:03:38.730Z,100929.84
2023-02-04T20:06:09.569Z,100934.13
2023-02-04T20:08:54.572Z,100934.16
2023-02-04T20:11:31.267Z,100932.38
2023-02-04T20:14:20.226Z,100934.13
2023-02-04T20:17:00.165Z,100937.63
2023-02-04T20:19:35.018Z,100936.78
2023-02-04T20:22:17.785Z,100948.06
2023-02-04T20:24:47.997Z,100943.72
2023-02-04T20:27:28.867Z,100929.91
2023-02-04T20:30:19.182Z,100942.88
2023-02-04T20:32:51.546Z,100939.41
2023-02-04T20:35:19.021Z,100949.81
2023-02-04T20:37:54.293Z,100958.44
2023-02-04T20:40:27.177Z,100958.47
2023-02-04T20:42:58.472Z,100951.53
2023-02-04T20:45:36.797Z,100958.41
2023-02-04T20:48:16.254Z,100964.47
2023-02-04T20:50:53.522Z,100954.00
2023-02-04T20:53:35.996Z,100957.50
2023-02-04T20:56:19.207Z,100955.78
2023-02-04T20:58:48.455Z,100956.66
2023-02-04T21:01:22.632Z,100962.75
2023-02-04T21:03:51.332Z,100963.59
2023-02-04T21:06:31.707Z,100971.41
2023-02-04T21:09:00.092Z,100956.66
2023-02-04T21:11:27.668Z,100974.03
2023-02-04T21:13:55.660Z,100967.06
2023-02-04T21:16:23.222Z,100963.63
2023-02-04T21:18:51.044Z,100963.59
2023-02-04T21:21:20.427Z,100974.81
2023-02-04T21:23:47.987Z,100972.31
2023-02-04T21:26:16.882Z,100968.81
2023-02-04T21:28:45.007Z,100975.72
2023-02-04T21:31:12.839Z,100980.94
2023-02-04T21:33:40.506Z,100968.00
2023-02-04T21:36:08.787Z,100978.31
2023-02-04T21:38:36.895Z,100979.19
2023-02-04T21:41:04.972Z,100977.47
2023-02-04T21:43:32.907Z,100985.28
2023-02-04T21:46:00.628Z,100983.53
2023-02-04T21:48:28.444Z,100985.25
2023-02-04T21:50:55.948Z,100987.03
2023-02-04T21:53:23.994Z,100975.75
2023-02-04T21:55:52.400Z,100978.34
2023-02-04T21:58:20.219Z,100984.41
2023-02-04T22:00:49.646Z,100993.03
2023-02-04T22:03:17.529Z,100995.63
2023-02-04T22:05:45.692Z,100989.66
2023-02-04T22:08:13.332Z,100990.50
2023-02-04T22:10:40.899Z,100996.59
2023-02-04T22:13:47.049Z,100992.22
2023-02-04T22:16:17.024Z,101000.03
2023-02-04T22:18:44.515Z,101006.06
2023-02-04T22:21:12.237Z,101004.38
2023-02-04T22:23:40.383Z,101000.88
2023-02-04T22:26:11.328Z,101007.78
2023-02-04T22:28:38.964Z,101001.75
2023-02-04T22:31:07.194Z,101006.88
2023-02-04T22:33:34.857Z,101004.28
2023-02-04T22:36:06.397Z,100996.50
2023-02-04T22:38:34.256Z,101006.91
2023-02-04T22:41:03.872Z,100999.91
2023-02-04T22:43:32.119Z,101003.38
2023-02-04T22:46:00.345Z,101003.38
2023-02-04T22:48:27.906Z,101007.75
2023-02-04T22:50:56.658Z,100999.97
2023-02-04T22:53:24.487Z,100993.97
2023-02-04T22:55:52.005Z,100993.97
2023-02-04T22:58:19.548Z,101003.47
2023-02-04T23:00:47.652Z,101003.41
2023-02-04T23:03:16.025Z,101006.91
2023-02-04T23:05:45.340Z,101013.78
2023-02-04T23:08:14.233Z,101012.91
2023-02-04T23:10:41.865Z,101015.47
2023-02-04T23:13:28.488Z,100999.88
2023-02-04T23:15:56.527Z,101003.28
2023-02-04T23:18:24.305Z,101006.78
2023-02-04T23:20:52.454Z,101004.19
2023-02-04T23:23:20.391Z,101006.75
2023-02-04T23:25:49.955Z,100999.00
2023-02-04T23:28:17.976Z,101005.06
2023-02-04T23:30:45.672Z,101011.09
2023-02-04T23:33:13.446Z,101012.84
2023-02-04T23:35:41.003Z,101013.72
2023-02-04T23:38:08.718Z,101018.91
2023-02-04T23:40:36.374Z,101011.13
2023-02-04T23:43:04.019Z,101017.19
2023-02-04T23:45:32.075Z,101019.84
2023-02-04T23:47:59.856Z,101015.50
2023-02-04T23:50:27.534Z,101023.38
2023-02-04T23:52:55.056Z,101015.63
2023-02-04T23:55:22.588Z,101025.97
2023-02-04T23:57:50.820Z,101021.66
